Time;durP1;ratioP1;P1;durP2;ratioP2;P2;SDS_P1;SDS_P2;PMS_P1;PMS_P2;Temp;Humidity;BMP_temperature;BMP_pressure;BME280_temperature;BME280_humidity;BME280_pressure;Samples;Min_cycle;Max_cycle;Signal;HPM_P1;HPM_P2
2023/12/17 00:02:22;;;;;;;10.05;4.63;;;;;;;11.22;100.00;102557.56;4912599;29;20510;-69
2023/12/17 00:04:48;;;;;;;10.05;4.18;;;;;;;11.38;100.00;102558.72;4929764;29;20035;-69
2023/12/17 00:07:14;;;;;;;7.90;3.70;;;;;;;11.49;100.00;102575.44;4930922;29;20024;-69
2023/12/17 00:09:40;;;;;;;9.90;4.40;;;;;;;11.19;100.00;102589.75;4946589;28;20043;-69
2023/12/17 00:12:05;;;;;;;9.68;3.95;;;;;;;11.17;100.00;102592.75;4946592;28;20326;-69
2023/12/17 00:14:31;;;;;;;10.32;4.45;;;;;;;11.43;100.00;102595.56;4935152;29;20051;-69
2023/12/17 00:16:56;;;;;;;9.32;3.33;;;;;;;11.24;100.00;102597.72;4947689;28;20546;-69
2023/12/17 00:19:22;;;;;;;8.90;4.07;;;;;;;11.26;100.00;102598.19;4932578;29;20819;-69
2023/12/17 00:21:47;;;;;;;8.30;3.25;;;;;;;11.38;100.00;102595.72;4946646;28;20475;-69
2023/12/17 00:24:13;;;;;;;10.30;4.18;;;;;;;11.24;100.00;102590.41;4929222;29;20028;-69
2023/12/17 00:26:38;;;;;;;8.60;3.40;;;;;;;11.51;100.00;102584.00;4945104;29;20399;-70
2023/12/17 00:29:03;;;;;;;10.82;3.42;;;;;;;11.24;100.00;102585.03;4929734;29;20495;-69
2023/12/17 00:31:29;;;;;;;7.25;3.05;;;;;;;11.26;100.00;102584.72;4944819;29;20083;-69
2023/12/17 00:33:54;;;;;;;9.35;3.88;;;;;;;11.44;100.00;102578.28;4932130;29;20142;-69
2023/12/17 00:36:20;;;;;;;10.85;3.70;;;;;;;11.50;100.00;102580.50;4930024;29;20070;-69
2023/12/17 00:38:45;;;;;;;11.35;3.50;;;;;;;11.69;100.00;102572.19;4928364;29;20078;-69
2023/12/17 00:41:11;;;;;;;8.63;3.25;;;;;;;11.50;100.00;102571.59;4931800;29;20418;-69
2023/12/17 00:43:36;;;;;;;9.85;3.53;;;;;;;11.61;100.00;102559.44;4931173;29;20032;-69
2023/12/17 00:46:02;;;;;;;7.30;3.33;;;;;;;11.48;100.00;102553.03;4933402;29;20573;-69
2023/12/17 00:48:31;;;;;;;8.38;3.60;;;;;;;11.61;100.00;102554.81;4932439;29;20074;-70
2023/12/17 00:50:56;;;;;;;7.60;3.45;;;;;;;11.79;100.00;102542.16;4930769;29;20040;-69
2023/12/17 00:53:22;;;;;;;9.60;2.85;;;;;;;11.54;100.00;102548.28;4934264;29;20036;-69
2023/12/17 00:55:47;;;;;;;7.10;3.00;;;;;;;11.52;100.00;102554.00;4934343;29;20115;-69
2023/12/17 00:58:13;;;;;;;9.48;3.22;;;;;;;11.50;100.00;102548.13;4948434;29;20042;-69
2023/12/17 01:00:38;;;;;;;5.47;3.35;;;;;;;11.60;100.00;102555.13;4947710;29;20024;-69
2023/12/17 01:03:03;;;;;;;10.55;3.30;;;;;;;11.30;100.00;102561.41;4931983;29;20047;-69
2023/12/17 01:05:29;;;;;;;11.25;3.83;;;;;;;11.51;100.00;102576.72;4948275;29;20039;-69
2023/12/17 01:07:54;;;;;;;8.20;3.50;;;;;;;11.45;100.00;102582.56;4948193;29;20418;-69
2023/12/17 01:10:20;;;;;;;7.65;3.15;;;;;;;11.29;100.00;102584.06;4960748;28;20019;-69
2023/12/17 01:12:45;;;;;;;7.63;3.47;;;;;;;11.51;100.00;102581.31;4927758;29;20511;-69
2023/12/17 01:15:12;;;;;;;9.55;4.13;;;;;;;11.52;100.00;102580.97;4929759;29;20040;-69
2023/12/17 01:17:37;;;;;;;7.88;3.50;;;;;;;11.54;100.00;102578.78;4944155;29;20050;-69
2023/12/17 01:20:08;;;;;;;7.18;3.38;;;;;;;11.45;100.00;102571.75;4928734;29;20039;-69
2023/12/17 01:22:33;;;;;;;7.80;3.20;;;;;;;11.72;100.00;102566.94;4928728;28;20383;-69
2023/12/17 01:24:59;;;;;;;9.43;3.83;;;;;;;11.54;100.00;102564.47;4930409;29;20298;-69
2023/12/17 01:27:24;;;;;;;9.60;3.20;;;;;;;11.50;100.00;102563.50;4944259;29;20039;-70
2023/12/17 01:29:50;;;;;;;10.85;3.10;;;;;;;11.71;100.00;102559.19;4955954;28;20458;-69
2023/12/17 01:32:15;;;;;;;4.95;2.70;;;;;;;11.59;100.00;102550.84;4956697;28;20071;-69
2023/12/17 01:34:41;;;;;;;8.00;2.70;;;;;;;11.72;100.00;102553.44;4941483;29;20726;-70
2023/12/17 01:37:07;;;;;;;6.57;3.08;;;;;;;11.87;99.45;102546.00;4927890;29;20043;-69
2023/12/17 01:39:32;;;;;;;6.70;3.15;;;;;;;11.66;100.00;102541.22;4927733;28;20032;-69
2023/12/17 01:41:58;;;;;;;7.22;3.22;;;;;;;11.60;99.90;102541.63;4926744;29;20043;-69
2023/12/17 01:44:23;;;;;;;8.20;3.83;;;;;;;11.69;100.00;102534.41;4928882;29;20046;-69
2023/12/17 01:46:49;;;;;;;9.10;3.88;;;;;;;11.84;99.46;102541.22;4943297;28;20031;-69
2023/12/17 01:49:14;;;;;;;7.63;3.65;;;;;;;11.80;99.59;102546.47;4926265;29;20048;-69
2023/12/17 01:51:42;;;;;;;9.20;3.28;;;;;;;11.58;100.00;102541.16;4925633;29;20040;-69
2023/12/17 01:54:07;;;;;;;12.23;3.13;;;;;;;11.71;100.00;102537.59;4926029;29;20833;-69
2023/12/17 01:56:33;;;;;;;5.65;2.72;;;;;;;11.63;100.00;102541.78;4927114;29;20031;-69
2023/12/17 01:59:02;;;;;;;6.40;3.05;;;;;;;11.56;100.00;102537.97;4943469;28;20043;-69
2023/12/17 02:01:28;;;;;;;8.93;3.47;;;;;;;11.70;100.00;102544.88;4943087;29;20631;-69
2023/12/17 02:03:55;;;;;;;9.15;3.25;;;;;;;11.69;99.80;102537.09;4943212;29;20865;-69
2023/12/17 02:06:21;;;;;;;6.10;2.97;;;;;;;11.77;99.02;102526.28;4929000;29;20035;-69
2023/12/17 02:08:46;;;;;;;5.22;2.70;;;;;;;11.71;99.41;102524.84;4928543;29;20513;-69
2023/12/17 02:11:12;;;;;;;6.07;3.03;;;;;;;11.51;100.00;102520.06;4941677;29;20039;-69
2023/12/17 02:13:37;;;;;;;7.18;3.42;;;;;;;11.80;98.42;102519.47;4928415;29;20038;-69
2023/12/17 02:16:03;;;;;;;11.57;3.47;;;;;;;11.69;98.62;102507.41;4928932;29;20040;-69
2023/12/17 02:18:28;;;;;;;7.75;3.03;;;;;;;11.56;99.70;102527.97;4943097;28;21405;-69
2023/12/17 02:20:54;;;;;;;8.38;3.15;;;;;;;11.66;100.00;102521.53;4929219;29;20031;-69
2023/12/17 02:23:20;;;;;;;5.75;2.60;;;;;;;11.75;98.07;102533.13;4943650;28;20510;-69
2023/12/17 02:25:45;;;;;;;7.30;3.13;;;;;;;11.74;98.46;102524.25;4911194;29;20082;-69
2023/12/17 02:28:11;;;;;;;7.38;3.15;;;;;;;11.92;97.51;102526.94;4928953;29;20032;-69
2023/12/17 02:30:36;;;;;;;6.13;3.25;;;;;;;11.95;97.30;102532.50;4926871;29;20026;-69
2023/12/17 02:33:02;;;;;;;8.25;3.35;;;;;;;11.94;96.90;102525.53;4928005;29;20044;-69
2023/12/17 02:35:27;;;;;;;5.88;2.60;;;;;;;11.82;97.95;102524.56;4929078;29;20032;-69
2023/12/17 02:37:53;;;;;;;9.75;3.65;;;;;;;11.74;98.32;102528.84;4942204;28;20028;-69
2023/12/17 02:40:18;;;;;;;9.80;3.47;;;;;;;11.64;98.33;102521.00;4925625;29;20450;-69
2023/12/17 02:42:44;;;;;;;6.75;2.88;;;;;;;11.79;98.59;102512.47;4926558;29;20378;-69
2023/12/17 02:45:11;;;;;;;5.30;2.53;;;;;;;11.69;98.35;102508.19;4958039;28;20024;-69
2023/12/17 02:47:36;;;;;;;7.68;3.22;;;;;;;11.64;99.07;102505.63;4927735;29;20043;-69
2023/12/17 02:50:02;;;;;;;7.88;2.67;;;;;;;11.81;97.48;102501.38;4942764;28;21387;-69
2023/12/17 02:52:28;;;;;;;4.35;2.47;;;;;;;11.63;98.88;102498.63;4927289;29;20490;-69
2023/12/17 02:54:53;;;;;;;4.78;2.63;;;;;;;11.77;98.11;102509.31;4925306;29;20039;-69
2023/12/17 02:57:24;;;;;;;5.40;2.75;;;;;;;11.65;98.29;102496.44;4942776;28;20044;-69
2023/12/17 02:59:53;;;;;;;12.25;4.07;;;;;;;11.64;98.45;102497.53;4925493;29;20538;-69
2023/12/17 03:02:19;;;;;;;3.42;1.88;;;;;;;11.84;97.18;102498.03;4925907;29;20044;-69
2023/12/17 03:04:45;;;;;;;5.80;2.30;;;;;;;11.93;96.47;102502.31;4929686;29;20495;-69
2023/12/17 03:07:10;;;;;;;5.10;2.45;;;;;;;11.85;96.31;102503.13;4945206;28;20104;-69
2023/12/17 03:09:39;;;;;;;4.22;2.30;;;;;;;11.76;96.95;102507.72;4930128;29;20032;-69
2023/12/17 03:12:04;;;;;;;6.38;2.95;;;;;;;11.54;97.58;102497.03;4974157;28;20031;-69
2023/12/17 03:14:33;;;;;;;6.30;2.38;;;;;;;11.71;97.43;102491.69;4945663;28;20058;-69
2023/12/17 03:16:58;;;;;;;4.35;2.15;;;;;;;11.75;96.80;102485.34;4929875;29;20087;-69
2023/12/17 03:19:27;;;;;;;5.82;2.45;;;;;;;11.97;96.01;102497.88;4930283;29;20035;-69
2023/12/17 03:21:52;;;;;;;4.70;2.15;;;;;;;11.76;95.79;102502.31;4943801;28;20050;-69
2023/12/17 03:24:18;;;;;;;7.22;2.58;;;;;;;11.76;96.65;102488.84;4928511;29;20511;-69
2023/12/17 03:26:43;;;;;;;3.35;2.05;;;;;;;11.66;96.84;102478.34;4930440;29;20031;-69
2023/12/17 03:29:09;;;;;;;4.30;2.55;;;;;;;11.91;96.32;102487.56;4944043;28;20125;-69
2023/12/17 03:31:34;;;;;;;3.60;2.22;;;;;;;11.89;95.90;102490.56;4942114;28;20119;-69
2023/12/17 03:34:00;;;;;;;4.95;2.92;;;;;;;11.94;95.23;102478.84;4928224;29;20043;-69
2023/12/17 03:36:26;;;;;;;4.72;2.38;;;;;;;11.95;95.09;102473.09;4958750;28;20040;-69
2023/12/17 03:38:51;;;;;;;5.43;2.50;;;;;;;11.99;95.14;102471.34;4958755;28;20032;-69
2023/12/17 03:41:28;;;;;;;4.55;2.40;;;;;;;11.56;97.09;102467.81;4944102;28;20487;-69
2023/12/17 03:43:56;;;;;;;4.40;2.53;;;;;;;11.77;96.63;102471.50;4943819;28;20040;-69
2023/12/17 03:46:24;;;;;;;6.90;3.10;;;;;;;11.74;96.52;102472.97;4944534;28;20027;-69
2023/12/17 03:48:50;;;;;;;3.58;2.42;;;;;;;11.66;96.33;102465.66;4943578;28;20063;-69
2023/12/17 03:51:16;;;;;;;7.68;2.40;;;;;;;11.56;97.68;102467.81;4929387;29;20137;-69
2023/12/17 03:53:41;;;;;;;5.00;2.65;;;;;;;11.62;96.94;102474.66;4958116;28;20059;-69
2023/12/17 03:56:12;;;;;;;5.22;2.83;;;;;;;11.47;97.13;102467.03;4927795;29;20515;-69
2023/12/17 03:58:38;;;;;;;4.00;2.17;;;;;;;11.64;96.95;102456.25;4945282;28;20035;-69
2023/12/17 04:01:05;;;;;;;4.65;2.13;;;;;;;11.55;97.14;102453.56;4944459;28;20057;-69
2023/12/17 04:03:31;;;;;;;3.63;2.20;;;;;;;11.68;95.70;102468.03;4928841;29;20041;-69
2023/12/17 04:05:59;;;;;;;6.15;3.00;;;;;;;11.65;97.27;102457.84;4929613;29;20502;-69
2023/12/17 04:08:24;;;;;;;9.00;3.15;;;;;;;11.74;95.52;102467.56;4929338;29;20039;-69
2023/12/17 04:10:50;;;;;;;4.82;2.28;;;;;;;11.70;95.47;102471.19;4929684;29;20036;-69
2023/12/17 04:13:18;;;;;;;4.30;2.38;;;;;;;11.71;95.19;102478.97;4930339;29;20047;-70
2023/12/17 04:15:44;;;;;;;4.50;2.00;;;;;;;11.47;97.20;102475.13;4943023;28;20031;-69
2023/12/17 04:18:10;;;;;;;4.45;2.72;;;;;;;11.44;98.57;102478.47;4930526;29;20414;-69
2023/12/17 04:20:35;;;;;;;6.00;2.05;;;;;;;11.57;98.12;102477.53;4945489;29;20039;-69
2023/12/17 04:23:00;;;;;;;6.50;2.17;;;;;;;11.66;96.63;102472.94;4930777;29;20043;-69
2023/12/17 04:25:26;;;;;;;4.18;2.05;;;;;;;11.79;95.52;102486.28;4930471;29;20051;-69
2023/12/17 04:27:51;;;;;;;2.88;2.03;;;;;;;11.94;94.57;102474.22;4931116;29;20039;-69
2023/12/17 04:30:17;;;;;;;5.80;1.88;;;;;;;11.86;95.70;102480.44;4930456;29;20490;-69
2023/12/17 04:32:43;;;;;;;2.83;1.70;;;;;;;11.97;94.70;102470.88;4930485;29;20044;-69
2023/12/17 04:35:08;;;;;;;5.25;2.03;;;;;;;11.93;93.97;102474.53;4930788;29;20032;-69
2023/12/17 04:37:34;;;;;;;5.32;2.35;;;;;;;11.94;94.62;102478.84;4930309;29;20573;-69
2023/12/17 04:39:59;;;;;;;8.05;2.13;;;;;;;11.97;94.12;102470.88;4929362;29;20050;-69
2023/12/17 04:42:25;;;;;;;2.95;2.00;;;;;;;12.05;94.35;102464.69;4929009;29;20044;-69
2023/12/17 04:44:50;;;;;;;4.70;1.80;;;;;;;11.89;95.25;102465.47;4928694;29;20035;-69
2023/12/17 04:47:16;;;;;;;5.32;2.15;;;;;;;12.00;94.83;102467.53;4929700;29;20039;-69
2023/12/17 04:49:41;;;;;;;3.78;2.35;;;;;;;11.69;95.88;102442.63;4928103;29;20039;-69
2023/12/17 04:52:10;;;;;;;3.17;2.13;;;;;;;11.53;95.64;102454.97;4942876;28;20036;-69
2023/12/17 04:54:35;;;;;;;3.80;1.92;;;;;;;12.00;94.19;102464.06;4928079;29;20094;-69
2023/12/17 04:57:01;;;;;;;3.30;2.15;;;;;;;11.68;95.24;102449.94;4929710;29;20590;-70
2023/12/17 04:59:27;;;;;;;4.10;1.90;;;;;;;11.26;98.58;102450.66;4958758;28;20115;-69
2023/12/17 05:01:52;;;;;;;6.38;2.42;;;;;;;11.34;98.20;102457.19;4929951;29;20434;-70
2023/12/17 05:04:18;;;;;;;4.13;1.83;;;;;;;11.64;97.18;102456.25;4928070;29;20119;-69
2023/12/17 05:06:43;;;;;;;3.97;2.05;;;;;;;11.93;95.48;102458.31;4929398;29;20032;-69
2023/12/17 05:09:10;;;;;;;3.20;1.98;;;;;;;11.90;95.38;102458.97;4943726;28;20083;-69
2023/12/17 05:11:35;;;;;;;3.90;1.83;;;;;;;11.80;95.72;102460.09;4927936;29;20034;-69
2023/12/17 05:14:01;;;;;;;1.48;1.15;;;;;;;11.78;95.51;102462.31;4943050;28;20044;-69
2023/12/17 05:16:26;;;;;;;5.45;1.77;;;;;;;11.90;95.00;102458.97;4929271;29;20031;-69
2023/12/17 05:18:52;;;;;;;5.95;2.03;;;;;;;11.93;94.88;102461.84;4943713;28;20433;-69
2023/12/17 05:21:17;;;;;;;3.40;2.10;;;;;;;11.63;95.69;102463.53;4944040;28;20024;-69
2023/12/17 05:23:43;;;;;;;4.25;1.90;;;;;;;11.91;95.27;102472.16;4943235;28;20070;-69
2023/12/17 05:26:09;;;;;;;2.20;1.67;;;;;;;11.84;95.84;102466.44;4927203;29;20032;-69
2023/12/17 05:28:34;;;;;;;2.88;1.63;;;;;;;11.78;95.15;102482.00;4929327;29;20491;-69
2023/12/17 05:31:00;;;;;;;1.63;1.20;;;;;;;11.69;96.92;102486.59;4928442;29;20086;-69
2023/12/17 05:33:25;;;;;;;3.65;1.67;;;;;;;11.80;95.67;102484.38;4927119;29;20035;-69
2023/12/17 05:35:51;;;;;;;3.17;1.85;;;;;;;11.53;97.21;102473.88;4943974;28;20107;-69
2023/12/17 05:38:17;;;;;;;3.13;1.90;;;;;;;11.72;96.86;102469.78;4926570;29;20040;-69
2023/12/17 05:40:42;;;;;;;3.65;2.22;;;;;;;11.86;95.76;102469.63;4928615;29;20127;-69
2023/12/17 05:43:08;;;;;;;2.55;1.60;;;;;;;11.94;95.55;102468.84;4928192;28;20042;-69
2023/12/17 05:45:34;;;;;;;2.15;1.48;;;;;;;11.94;94.48;102466.13;4928750;29;20039;-69
2023/12/17 05:47:59;;;;;;;2.28;1.70;;;;;;;11.84;95.64;102469.16;4928706;29;20032;-69
2023/12/17 05:50:24;;;;;;;2.28;1.42;;;;;;;11.81;95.05;102467.06;4942624;28;20054;-69
2023/12/17 05:52:50;;;;;;;4.93;2.05;;;;;;;11.61;95.81;102473.84;4926316;29;20127;-69
2023/12/17 05:55:15;;;;;;;3.55;2.13;;;;;;;11.99;95.33;102474.06;4943087;28;20085;-69
2023/12/17 05:57:44;;;;;;;2.70;1.48;;;;;;;11.97;94.88;102470.88;4943153;28;20035;-69
2023/12/17 06:00:13;;;;;;;2.83;1.45;;;;;;;12.01;94.53;102474.53;4926657;29;20031;-69
2023/12/17 06:02:39;;;;;;;4.07;1.80;;;;;;;12.09;94.23;102462.13;4957823;28;20023;-69
2023/12/17 06:05:05;;;;;;;3.63;1.88;;;;;;;11.93;94.98;102474.53;4928479;29;20046;-69
2023/12/17 06:07:33;;;;;;;3.08;2.03;;;;;;;12.05;94.40;102467.38;4942509;28;20510;-69
2023/12/17 06:09:59;;;;;;;1.48;1.10;;;;;;;11.99;93.83;102468.66;4927773;29;20055;-69
2023/12/17 06:12:24;;;;;;;2.85;1.85;;;;;;;11.64;96.44;102473.25;4928339;29;20086;-69
2023/12/17 06:14:49;;;;;;;1.85;1.35;;;;;;;11.82;95.60;102457.06;4927855;29;20055;-69
2023/12/17 06:17:15;;;;;;;3.97;1.80;;;;;;;11.55;97.61;102477.03;4926399;29;20027;-69
2023/12/17 06:19:44;;;;;;;3.25;1.90;;;;;;;12.03;94.46;102460.72;4942856;28;20046;-69
2023/12/17 06:22:11;;;;;;;2.92;1.98;;;;;;;11.88;95.35;102459.31;4926880;29;20110;-69
2023/12/17 06:24:37;;;;;;;2.40;1.52;;;;;;;11.66;96.53;102462.16;4926898;29;20048;-69
2023/12/17 06:27:03;;;;;;;4.00;1.70;;;;;;;11.61;97.19;102462.28;4943509;28;20047;-69
2023/12/17 06:29:29;;;;;;;3.47;1.50;;;;;;;12.01;96.07;102469.13;4931347;29;20150;-69
2023/12/17 06:31:54;;;;;;;3.65;2.00;;;;;;;12.16;93.76;102482.13;4931620;29;20035;-69
2023/12/17 06:34:22;;;;;;;2.30;1.40;;;;;;;12.11;94.47;102471.50;4931993;29;20055;-69
2023/12/17 06:36:47;;;;;;;2.80;2.03;;;;;;;12.17;93.26;102469.44;4946304;29;20066;-70
2023/12/17 06:39:12;;;;;;;2.92;1.63;;;;;;;12.28;92.89;102476.06;4929200;29;20118;-70
2023/12/17 06:41:47;;;;;;;3.75;1.77;;;;;;;12.18;93.90;102485.31;4960995;28;20398;-69
2023/12/17 06:44:15;;;;;;;3.60;1.70;;;;;;;12.21;93.34;102484.69;4931076;29;20036;-70
2023/12/17 06:46:42;;;;;;;2.03;1.50;;;;;;;12.12;93.60;102486.59;4926870;29;20059;-69
2023/12/17 06:49:08;;;;;;;2.35;1.67;;;;;;;12.13;93.76;102488.19;4925351;29;20160;-69
2023/12/17 06:51:38;;;;;;;3.72;1.90;;;;;;;12.21;93.60;102478.47;4929230;29;20113;-69
2023/12/17 06:54:04;;;;;;;2.83;1.60;;;;;;;12.04;93.54;102481.97;4945374;29;20507;-69
2023/12/17 06:56:32;;;;;;;2.63;1.40;;;;;;;12.19;93.01;102481.50;4931523;29;20039;-69
2023/12/17 06:58:57;;;;;;;2.80;1.83;;;;;;;12.04;93.74;102498.19;4932225;29;20724;-69
2023/12/17 07:01:22;;;;;;;1.67;1.05;;;;;;;12.15;93.37;102477.88;4943188;29;20059;-69
2023/12/17 07:03:49;;;;;;;1.85;1.38;;;;;;;12.23;92.79;102479.72;4931298;29;20039;-69
2023/12/17 07:06:14;;;;;;;2.72;1.45;;;;;;;12.25;92.84;102476.72;4946181;29;20038;-69
2023/12/17 07:08:41;;;;;;;5.13;1.35;;;;;;;12.06;93.18;102477.06;4944731;29;20027;-69
2023/12/17 07:11:07;;;;;;;1.67;1.17;;;;;;;12.15;93.54;102483.25;4928541;29;20040;-69
2023/12/17 07:13:35;;;;;;;2.10;1.52;;;;;;;11.89;94.16;102474.38;4931227;29;20042;-69
2023/12/17 07:16:01;;;;;;;3.78;1.77;;;;;;;12.07;93.94;102486.75;4931207;29;20487;-69
2023/12/17 07:18:26;;;;;;;4.90;1.60;;;;;;;12.24;92.70;102481.34;4960429;28;20069;-69
2023/12/17 07:20:51;;;;;;;2.00;1.60;;;;;;;12.27;91.99;102485.31;4930477;29;20459;-70
2023/12/17 07:23:17;;;;;;;2.25;1.73;;;;;;;12.32;91.84;102490.53;4927989;29;20032;-69
2023/12/17 07:25:42;;;;;;;2.15;1.50;;;;;;;12.14;92.62;102484.38;4930295;29;20044;-69
2023/12/17 07:28:08;;;;;;;2.65;1.73;;;;;;;12.07;93.32;102486.75;4962351;28;20520;-70
2023/12/17 07:30:35;;;;;;;5.15;1.85;;;;;;;12.04;93.85;102481.97;4924815;29;20122;-70
2023/12/17 07:33:00;;;;;;;4.82;2.20;;;;;;;12.15;93.30;102493.28;4945306;28;20035;-69
2023/12/17 07:35:26;;;;;;;2.53;1.58;;;;;;;12.18;93.65;102498.81;4931719;29;20558;-69
2023/12/17 07:37:52;;;;;;;3.38;2.17;;;;;;;12.32;93.02;102495.94;4946208;29;20032;-69
2023/12/17 07:40:17;;;;;;;2.67;1.75;;;;;;;12.25;93.16;102488.31;4942627;29;20082;-69
2023/12/17 07:42:43;;;;;;;3.13;1.83;;;;;;;12.19;93.13;102495.03;4928680;29;20122;-69
2023/12/17 07:45:08;;;;;;;3.28;2.03;;;;;;;12.03;93.43;102485.00;4927850;29;20072;-69
2023/12/17 07:47:34;;;;;;;3.20;1.80;;;;;;;12.06;94.49;102487.88;4945483;29;20440;-69
2023/12/17 07:49:59;;;;;;;3.97;2.28;;;;;;;12.21;94.10;102497.41;4944586;28;20040;-69
2023/12/17 07:52:25;;;;;;;2.40;1.90;;;;;;;12.07;94.19;102494.88;4945123;28;20130;-69
2023/12/17 07:54:53;;;;;;;3.60;2.10;;;;;;;12.10;94.80;102491.50;4933266;29;20039;-70
2023/12/17 07:57:19;;;;;;;5.03;2.90;;;;;;;12.17;94.17;102478.34;4931947;29;20114;-69
2023/12/17 07:59:46;;;;;;;4.20;2.25;;;;;;;12.36;92.96;102470.66;4949426;29;20513;-69
2023/12/17 08:02:15;;;;;;;6.53;2.60;;;;;;;12.41;92.15;102454.28;4948893;28;20046;-70
2023/12/17 08:04:41;;;;;;;3.90;2.20;;;;;;;12.39;92.63;102456.50;4932216;29;20413;-69
2023/12/17 08:07:09;;;;;;;7.22;2.47;;;;;;;12.34;94.07;102448.59;4947404;29;20091;-69
2023/12/17 08:09:35;;;;;;;5.00;2.25;;;;;;;12.27;93.62;102461.78;4932431;29;20036;-69
2023/12/17 08:12:01;;;;;;;6.40;2.80;;;;;;;12.15;93.70;102450.84;4963856;28;20032;-69
2023/12/17 08:14:26;;;;;;;4.78;2.35;;;;;;;12.18;93.96;102455.59;4933440;29;20398;-69
2023/12/17 08:16:52;;;;;;;2.28;1.75;;;;;;;12.36;92.58;102459.06;4948522;29;20098;-69
2023/12/17 08:19:18;;;;;;;4.47;2.38;;;;;;;12.15;94.12;102460.84;4933297;29;20024;-69
2023/12/17 08:21:43;;;;;;;4.43;2.50;;;;;;;12.16;94.50;102455.13;4933261;29;20065;-69
2023/12/17 08:24:09;;;;;;;4.07;2.17;;;;;;;12.42;92.81;102469.38;4932855;29;20035;-69
2023/12/17 08:26:34;;;;;;;5.05;2.17;;;;;;;12.42;92.21;102465.88;4946695;29;20491;-70
2023/12/17 08:29:00;;;;;;;3.72;2.30;;;;;;;12.30;92.49;102465.75;4932241;29;20036;-69
2023/12/17 08:31:25;;;;;;;3.28;2.10;;;;;;;12.34;92.30;102470.19;4931639;29;20034;-69
2023/12/17 08:33:52;;;;;;;8.50;2.38;;;;;;;12.36;92.59;102473.38;4933703;29;20396;-69
2023/12/17 08:36:22;;;;;;;4.53;2.55;;;;;;;12.37;92.31;102480.34;4947483;29;20031;-69
2023/12/17 08:38:48;;;;;;;6.43;3.25;;;;;;;12.31;91.62;102481.63;4937103;29;20043;-69
2023/12/17 08:41:14;;;;;;;4.30;2.63;;;;;;;12.55;91.01;102479.19;4932678;29;20038;-69
2023/12/17 08:43:39;;;;;;;5.25;2.25;;;;;;;12.25;91.77;102474.03;4935830;29;20628;-69
2023/12/17 08:46:08;;;;;;;4.53;2.20;;;;;;;12.47;90.62;102480.00;4933214;29;20039;-69
2023/12/17 08:48:33;;;;;;;6.03;2.58;;;;;;;12.55;90.46;102481.91;4928323;29;20051;-69
2023/12/17 08:50:58;;;;;;;3.75;2.50;;;;;;;12.56;90.11;102483.47;4961450;28;20078;-69
2023/12/17 08:53:26;;;;;;;7.43;2.22;;;;;;;12.42;91.06;102466.69;4976661;28;20131;-70
2023/12/17 08:55:52;;;;;;;7.07;2.90;;;;;;;12.16;91.64;102470.53;4933621;29;20038;-69
2023/12/17 08:58:18;;;;;;;4.45;2.35;;;;;;;12.28;92.00;102460.69;4932946;29;20510;-70
2023/12/17 09:00:43;;;;;;;5.90;2.53;;;;;;;12.35;91.46;102463.66;4930242;29;20071;-69
2023/12/17 09:03:09;;;;;;;3.42;2.13;;;;;;;12.38;90.88;102465.75;4930786;29;20021;-69
2023/12/17 09:05:35;;;;;;;3.13;2.08;;;;;;;12.14;91.95;102462.75;4929078;29;20028;-69
2023/12/17 09:08:01;;;;;;;4.45;2.42;;;;;;;12.52;90.10;102462.84;4928829;29;20050;-69
2023/12/17 09:10:30;;;;;;;6.30;2.30;;;;;;;12.43;90.62;102475.56;4929416;29;20456;-70
2023/12/17 09:12:55;;;;;;;4.50;2.55;;;;;;;12.61;89.80;102469.00;4933412;29;20055;-69
2023/12/17 09:15:21;;;;;;;4.93;2.75;;;;;;;12.77;88.80;102466.56;4931943;29;20126;-69
2023/12/17 09:17:47;;;;;;;5.47;2.63;;;;;;;12.52;90.14;102477.13;4930868;29;20036;-69
2023/12/17 09:20:15;;;;;;;5.43;2.85;;;;;;;12.58;90.03;102478.53;4946715;29;20032;-69
2023/12/17 09:22:41;;;;;;;5.88;3.22;;;;;;;12.59;90.06;102488.25;4944105;28;20036;-69
2023/12/17 09:25:09;;;;;;;6.90;4.20;;;;;;;12.66;89.44;102483.13;4925745;29;20031;-69
2023/12/17 09:27:35;;;;;;;9.15;3.47;;;;;;;12.60;89.80;102484.41;4945757;29;20043;-69
2023/12/17 09:30:00;;;;;;;7.18;3.42;;;;;;;12.73;89.13;102482.63;4944474;29;20042;-70
2023/12/17 09:32:26;;;;;;;4.85;2.90;;;;;;;12.79;88.03;102485.97;4927206;29;20122;-69
2023/12/17 09:34:52;;;;;;;6.30;3.65;;;;;;;12.82;88.93;102472.56;4928013;29;20115;-69
2023/12/17 09:37:17;;;;;;;7.47;3.83;;;;;;;12.79;88.18;102478.66;4928156;29;20031;-69
2023/12/17 09:39:43;;;;;;;7.70;4.15;;;;;;;12.84;87.88;102475.75;4933020;29;20041;-70
2023/12/17 09:42:10;;;;;;;7.45;4.07;;;;;;;12.38;90.36;102470.34;4942514;28;20095;-69
2023/12/17 09:44:36;;;;;;;7.10;3.25;;;;;;;12.73;88.06;102463.72;4930451;29;20406;-70
2023/12/17 09:47:03;;;;;;;6.03;3.28;;;;;;;12.84;87.70;102464.94;4931059;29;20028;-69
2023/12/17 09:49:28;;;;;;;7.13;3.50;;;;;;;12.63;88.40;102462.16;4931198;29;20040;-70
2023/12/17 09:52:06;;;;;;;5.97;3.50;;;;;;;12.81;87.38;102464.78;4930084;29;20502;-69
2023/12/17 09:54:32;;;;;;;6.47;3.63;;;;;;;12.83;87.80;102463.38;4929928;29;20106;-69
2023/12/17 09:56:58;;;;;;;7.07;3.65;;;;;;;12.74;88.23;102457.19;4926707;29;20039;-69
2023/12/17 09:59:27;;;;;;;4.93;2.67;;;;;;;12.67;87.75;102456.91;4931047;29;20028;-69
2023/12/17 10:01:52;;;;;;;7.95;3.88;;;;;;;12.67;88.07;102460.41;4930448;29;20146;-69
2023/12/17 10:04:25;;;;;;;4.75;3.17;;;;;;;12.71;87.99;102460.53;4928722;29;20071;-70
2023/12/17 10:06:53;;;;;;;6.40;3.03;;;;;;;12.57;88.73;102459.94;4930572;29;20040;-69
2023/12/17 10:09:19;;;;;;;7.72;3.55;;;;;;;12.55;88.21;102464.88;4945894;29;20047;-69
2023/12/17 10:11:45;;;;;;;5.03;2.72;;;;;;;12.50;88.63;102456.97;4931050;29;20645;-69
2023/12/17 10:14:24;;;;;;;5.07;3.20;;;;;;;12.49;89.33;102455.38;4945156;28;20031;-69
2023/12/17 10:16:53;;;;;;;6.15;3.17;;;;;;;12.72;88.02;102450.53;4930870;29;20070;-69
2023/12/17 10:19:19;;;;;;;5.90;3.28;;;;;;;12.70;87.90;102440.81;4928676;29;20685;-70
2023/12/17 10:21:44;;;;;;;5.35;3.13;;;;;;;12.82;87.59;102442.03;4927289;29;20036;-69
2023/12/17 10:24:10;;;;;;;7.32;3.22;;;;;;;12.95;86.38;102446.44;4928675;29;20106;-69
2023/12/17 10:26:47;;;;;;;7.10;3.15;;;;;;;12.64;87.47;102439.41;4932702;29;20534;-69
2023/12/17 10:29:22;;;;;;;5.90;2.65;;;;;;;12.67;88.30;102443.38;4929216;29;20048;-69
2023/12/17 10:31:49;;;;;;;5.53;2.97;;;;;;;12.87;87.49;102439.16;4929042;29;20087;-69
2023/12/17 10:34:24;;;;;;;5.25;2.55;;;;;;;12.88;87.16;102438.03;4944738;29;20067;-69
2023/12/17 10:36:51;;;;;;;6.20;3.15;;;;;;;12.89;87.27;102434.22;4960959;28;20043;-69
2023/12/17 10:39:19;;;;;;;7.70;2.97;;;;;;;12.62;88.06;102438.13;4960196;28;20056;-69
2023/12/17 10:41:46;;;;;;;5.28;2.72;;;;;;;12.74;88.22;102437.47;4922159;29;20043;-69
2023/12/17 10:44:13;;;;;;;6.15;2.60;;;;;;;13.03;86.14;102432.88;4927542;29;20537;-69
2023/12/17 10:46:43;;;;;;;7.70;2.60;;;;;;;13.05;85.68;102419.03;4931288;29;20447;-69
2023/12/17 10:49:09;;;;;;;3.33;2.25;;;;;;;12.97;85.67;102419.88;4929726;29;20126;-69
2023/12/17 10:51:40;;;;;;;3.35;2.20;;;;;;;13.09;85.51;102411.84;4927262;29;20039;-69
2023/12/17 10:54:10;;;;;;;5.03;3.17;;;;;;;12.92;86.32;102422.75;4927649;29;20040;-69
2023/12/17 10:56:46;;;;;;;5.45;2.80;;;;;;;12.91;85.61;102408.41;4928764;29;20042;-69
2023/12/17 10:59:14;;;;;;;4.85;2.85;;;;;;;12.79;86.89;102415.66;4928381;28;20091;-69
2023/12/17 11:01:42;;;;;;;5.10;2.67;;;;;;;12.79;86.71;102410.25;4958194;28;20117;-69
2023/12/17 11:04:08;;;;;;;7.90;3.25;;;;;;;12.66;86.98;102406.63;4928998;29;20032;-69
2023/12/17 11:06:34;;;;;;;4.80;2.97;;;;;;;12.82;86.61;102396.88;4926210;29;20513;-69
2023/12/17 11:08:59;;;;;;;6.00;3.13;;;;;;;12.73;86.86;102384.53;4928540;29;20035;-69
2023/12/17 11:11:26;;;;;;;5.35;3.10;;;;;;;12.57;88.15;102382.38;4929871;29;20028;-69
2023/12/17 11:13:53;;;;;;;3.88;2.92;;;;;;;12.70;87.12;102386.75;4929913;29;20050;-69
2023/12/17 11:16:19;;;;;;;5.88;2.90;;;;;;;12.89;86.25;102393.66;4925251;29;20079;-69
2023/12/17 11:18:44;;;;;;;6.65;3.35;;;;;;;12.72;86.93;102377.53;4928379;29;20044;-70
2023/12/17 11:21:10;;;;;;;4.47;2.47;;;;;;;12.81;86.50;102372.88;4930626;29;20024;-69